Time;durP1;ratioP1;P1;durP2;ratioP2;P2;SDS_P1;SDS_P2;PMS_P1;PMS_P2;Temp;Humidity;BMP_temperature;BMP_pressure;BME280_temperature;BME280_humidity;BME280_pressure;Samples;Min_cycle;Max_cycle;Signal;HPM_P1;HPM_P2
2023/10/06 00:01:35;;;;;;;5.65;2.83;;;;;;;5.38;100.00;94004.69;2106587;28;20024;-82
2023/10/06 00:02:36;;;;;;;4.85;2.60;;;;;;;5.47;100.00;94012.38;2089591;28;20029;-80
2023/10/06 00:03:38;;;;;;;5.60;3.00;;;;;;;5.40;100.00;94012.28;2093720;28;20032;-81
2023/10/06 00:04:41;;;;;;;4.38;2.60;;;;;;;5.51;100.00;94010.53;2089875;28;20032;-81
2023/10/06 00:05:44;;;;;;;5.60;2.55;;;;;;;5.54;100.00;94013.22;2090934;28;20047;-81
2023/10/06 00:06:49;;;;;;;4.45;2.83;;;;;;;5.41;100.00;94001.34;2098187;28;20033;-82
2023/10/06 00:07:51;;;;;;;4.15;2.33;;;;;;;5.31;100.00;94001.94;2096772;28;20028;-82
2023/10/06 00:08:56;;;;;;;5.88;2.95;;;;;;;5.25;100.00;94000.75;2096651;28;20461;-80
2023/10/06 00:09:59;;;;;;;4.95;2.63;;;;;;;5.28;100.00;93997.38;2098261;28;20035;-80
2023/10/06 00:11:18;;;;;;;5.60;3.00;;;;;;;5.40;100.00;94001.69;2105193;28;20755;-81
2023/10/06 00:12:19;;;;;;;5.43;2.92;;;;;;;5.38;100.00;94003.94;2099937;28;20392;-81
2023/10/06 00:13:29;;;;;;;3.95;2.58;;;;;;;5.36;100.00;94001.66;2098180;28;20033;-82
2023/10/06 00:14:40;;;;;;;5.63;2.78;;;;;;;5.39;100.00;94000.16;2084236;28;20060;-80
2023/10/06 00:15:43;;;;;;;5.38;2.53;;;;;;;5.33;100.00;94007.66;2085869;28;20033;-81
2023/10/06 00:16:56;;;;;;;4.32;2.63;;;;;;;5.41;100.00;94000.56;2084662;28;20021;-82
2023/10/06 00:18:00;;;;;;;5.55;2.88;;;;;;;5.31;100.00;93999.28;2091562;28;20402;-81
2023/10/06 00:19:26;;;;;;;5.10;2.38;;;;;;;5.20;100.00;94003.72;2088357;28;20024;-80
2023/10/06 00:20:31;;;;;;;3.15;2.20;;;;;;;5.21;100.00;94006.00;2103571;28;20030;-81
2023/10/06 00:21:32;;;;;;;6.32;2.38;;;;;;;5.27;100.00;94001.16;2098565;28;20461;-82
2023/10/06 00:22:37;;;;;;;5.75;2.65;;;;;;;5.33;100.00;94007.66;2081644;28;20097;-83
2023/10/06 00:23:41;;;;;;;5.88;2.70;;;;;;;5.27;100.00;94011.78;2089996;28;20053;-81
2023/10/06 00:24:50;;;;;;;4.28;2.50;;;;;;;5.14;100.00;94010.47;2090158;28;20411;-81
2023/10/06 00:25:54;;;;;;;6.45;3.03;;;;;;;5.27;100.00;94006.47;2092359;28;20087;-83
2023/10/06 00:26:55;;;;;;;6.65;3.22;;;;;;;5.16;100.00;94013.50;2095466;28;20817;-82
2023/10/06 00:28:00;;;;;;;5.72;2.95;;;;;;;5.01;100.00;94004.59;2087106;28;20151;-81
2023/10/06 00:29:01;;;;;;;4.95;2.30;;;;;;;5.04;100.00;94003.88;2098373;28;20107;-82
2023/10/06 00:30:11;;;;;;;5.75;2.70;;;;;;;5.14;100.00;94007.81;2089708;28;20021;-82
2023/10/06 00:31:13;;;;;;;5.82;2.42;;;;;;;5.11;100.00;93997.91;2103431;28;20012;-81
2023/10/06 00:32:23;;;;;;;4.43;2.33;;;;;;;5.08;100.00;94015.28;2097176;28;20028;-83
2023/10/06 00:33:27;;;;;;;4.88;2.50;;;;;;;5.12;100.00;94008.16;2100553;28;20764;-82
2023/10/06 00:34:34;;;;;;;5.50;2.85;;;;;;;5.10;100.00;94012.31;2098116;28;20028;-82
2023/10/06 00:35:35;;;;;;;5.05;2.60;;;;;;;4.93;100.00;94009.03;2097583;28;20358;-81
2023/10/06 00:36:41;;;;;;;5.47;2.85;;;;;;;5.00;100.00;94011.81;2089582;28;20064;-81
2023/10/06 00:37:42;;;;;;;5.00;2.67;;;;;;;4.97;100.00;94012.50;2083259;28;20425;-81
2023/10/06 00:38:45;;;;;;;5.13;2.58;;;;;;;4.91;100.00;94015.81;2088845;28;20075;-82
2023/10/06 00:39:46;;;;;;;6.10;2.75;;;;;;;4.89;100.00;94002.94;2089260;28;20028;-82
2023/10/06 00:40:56;;;;;;;4.10;2.53;;;;;;;5.02;100.00;94012.19;2093628;28;20025;-82
2023/10/06 00:42:04;;;;;;;4.95;2.40;;;;;;;5.09;100.00;94008.09;2103257;28;20495;-84
2023/10/06 00:43:08;;;;;;;4.85;2.80;;;;;;;5.11;100.00;94009.28;2097841;28;20028;-83
2023/10/06 00:44:09;;;;;;;5.63;2.47;;;;;;;5.04;100.00;94012.59;2100988;28;20416;-81
2023/10/06 00:45:10;;;;;;;6.70;2.55;;;;;;;5.02;100.00;94011.44;2092088;28;20465;-80
2023/10/06 00:46:13;;;;;;;5.35;2.45;;;;;;;4.91;100.00;94016.56;2093588;28;20495;-82
2023/10/06 00:47:15;;;;;;;5.80;2.42;;;;;;;4.97;100.00;94015.16;2085435;28;20025;-80
2023/10/06 00:48:16;;;;;;;6.22;2.67;;;;;;;4.83;100.00;94022.13;2089894;28;20059;-81
2023/10/06 00:49:19;;;;;;;4.05;2.58;;;;;;;4.92;100.00;94014.69;2092082;28;20455;-81
2023/10/06 00:50:24;;;;;;;4.80;2.83;;;;;;;4.99;100.00;94004.94;2097798;28;20020;-81
2023/10/06 00:51:28;;;;;;;4.88;2.63;;;;;;;4.96;100.00;94005.69;2089247;28;20025;-79
2023/10/06 00:52:33;;;;;;;4.75;2.33;;;;;;;4.98;100.00;94011.38;2097466;28;20021;-82
2023/10/06 00:53:34;;;;;;;4.60;2.42;;;;;;;5.02;100.00;94014.09;2106395;28;20089;-82
2023/10/06 00:54:35;;;;;;;4.93;2.53;;;;;;;5.06;100.00;94001.66;2097531;28;20032;-82
2023/10/06 00:55:44;;;;;;;4.57;2.47;;;;;;;5.11;100.00;94005.88;2093513;28;20020;-81
2023/10/06 00:56:46;;;;;;;3.72;2.17;;;;;;;5.05;100.00;94006.19;2084426;28;20028;-81
2023/10/06 00:57:53;;;;;;;4.15;2.30;;;;;;;4.93;100.00;94011.69;2087193;28;20059;-80
2023/10/06 00:58:55;;;;;;;5.07;2.50;;;;;;;4.88;100.00;94005.94;2096108;28;20029;-81
2023/10/06 00:59:57;;;;;;;4.22;2.20;;;;;;;4.75;100.00;94008.78;2092252;28;20036;-82
2023/10/06 01:00:58;;;;;;;4.20;2.50;;;;;;;4.77;100.00;94013.72;2086479;28;20474;-80
2023/10/06 01:01:59;;;;;;;5.18;2.67;;;;;;;4.85;100.00;94007.41;2092605;28;20032;-81
2023/10/06 01:03:00;;;;;;;3.05;2.00;;;;;;;4.87;100.00;94010.44;2093011;28;20017;-81
2023/10/06 01:04:01;;;;;;;3.83;2.40;;;;;;;4.84;100.00;94011.19;2085905;28;20021;-81
2023/10/06 01:05:08;;;;;;;4.50;2.47;;;;;;;4.84;100.00;94013.06;2101288;28;20020;-82
2023/10/06 01:06:13;;;;;;;4.22;2.63;;;;;;;4.75;100.00;94008.78;2093543;28;20140;-80
2023/10/06 01:07:16;;;;;;;5.70;2.88;;;;;;;4.73;100.00;94010.25;2108467;28;20023;-81
2023/10/06 01:08:20;;;;;;;4.05;2.53;;;;;;;4.75;100.00;94002.72;2089190;28;20115;-80
2023/10/06 01:09:32;;;;;;;3.45;2.22;;;;;;;4.60;100.00;94011.56;2082239;28;20362;-80
2023/10/06 01:10:34;;;;;;;4.35;2.83;;;;;;;4.52;100.00;94008.03;2084405;28;20485;-82
2023/10/06 01:12:13;;;;;;;4.00;2.42;;;;;;;4.57;100.00;94005.13;2081511;28;20441;-80
2023/10/06 01:13:14;;;;;;;4.07;2.33;;;;;;;4.53;100.00;94007.69;2099665;28;20038;-81
2023/10/06 01:14:34;;;;;;;4.85;2.63;;;;;;;4.61;100.00;94016.53;2083565;28;20026;-82
2023/10/06 01:15:34;;;;;;;4.10;2.47;;;;;;;4.52;100.00;94016.78;2094097;28;20078;-80
2023/10/06 01:16:36;;;;;;;5.93;2.45;;;;;;;4.63;100.00;94016.16;2093268;28;20477;-81
2023/10/06 01:17:36;;;;;;;3.80;2.30;;;;;;;4.64;100.00;94018.44;2083030;28;20044;-81
2023/10/06 01:18:41;;;;;;;3.58;2.42;;;;;;;4.50;100.00;94016.34;2105692;28;20024;-82
2023/10/06 01:19:49;;;;;;;4.82;2.45;;;;;;;4.48;100.00;94021.25;2092666;28;20112;-82
2023/10/06 01:20:50;;;;;;;3.47;2.25;;;;;;;4.46;100.00;94009.47;2097402;28;20735;-82
2023/10/06 01:21:55;;;;;;;5.60;2.67;;;;;;;4.41;100.00;94015.81;2091285;28;20111;-79
2023/10/06 01:22:56;;;;;;;6.15;2.92;;;;;;;4.47;100.00;94013.63;2097719;28;20032;-82
2023/10/06 01:24:11;;;;;;;4.03;2.58;;;;;;;4.46;100.00;94012.88;2085123;28;20378;-79
2023/10/06 01:25:19;;;;;;;4.35;2.53;;;;;;;4.47;100.00;94011.75;2089988;28;20127;-81
2023/10/06 01:26:24;;;;;;;3.72;2.10;;;;;;;4.44;100.00;94019.66;2093100;28;20016;-81
2023/10/06 01:27:29;;;;;;;5.72;2.40;;;;;;;4.42;100.00;94014.69;2095621;28;20395;-82
2023/10/06 01:28:34;;;;;;;4.47;2.30;;;;;;;4.49;100.00;94014.81;2085609;28;20063;-82
2023/10/06 01:29:35;;;;;;;4.78;2.75;;;;;;;4.44;100.00;94014.38;2093139;28;20482;-83
2023/10/06 01:30:36;;;;;;;4.15;2.35;;;;;;;4.41;100.00;94015.06;2105714;28;20028;-80
2023/10/06 01:31:41;;;;;;;4.93;2.63;;;;;;;4.43;100.00;94018.09;2103592;28;20634;-82
2023/10/06 01:32:45;;;;;;;3.20;2.35;;;;;;;4.46;100.00;94012.13;2089175;28;20025;-82
2023/10/06 01:33:46;;;;;;;4.70;2.42;;;;;;;4.48;100.00;94015.19;2100823;28;20040;-82
2023/10/06 01:34:50;;;;;;;7.65;2.83;;;;;;;4.52;100.00;94010.69;2092752;28;20036;-82
2023/10/06 01:35:51;;;;;;;5.32;2.35;;;;;;;4.45;100.00;94013.25;2081201;28;20507;-82
2023/10/06 01:36:52;;;;;;;5.00;2.80;;;;;;;4.34;100.00;94010.41;2090006;28;20082;-82
2023/10/06 01:38:00;;;;;;;4.50;2.58;;;;;;;4.24;100.00;94011.00;2093839;28;20016;-81
2023/10/06 01:39:05;;;;;;;4.72;2.67;;;;;;;4.28;100.00;94011.81;2093633;28;20036;-81
2023/10/06 01:40:15;;;;;;;3.50;2.53;;;;;;;4.31;100.00;94018.31;2100973;28;20020;-81
2023/10/06 01:41:16;;;;;;;4.10;2.42;;;;;;;4.13;100.00;94013.47;2089079;28;20025;-80
2023/10/06 01:42:20;;;;;;;4.57;2.22;;;;;;;4.17;100.00;94011.66;2092255;28;20396;-82
2023/10/06 01:43:29;;;;;;;7.07;2.47;;;;;;;4.16;100.00;94012.75;2105201;28;20147;-82
2023/10/06 01:44:31;;;;;;;6.47;2.83;;;;;;;4.18;100.00;93997.31;2083709;28;20105;-82
2023/10/06 01:45:33;;;;;;;4.78;2.67;;;;;;;4.17;100.00;94000.28;2097337;28;20869;-82
2023/10/06 01:46:36;;;;;;;5.43;2.47;;;;;;;4.17;100.00;94000.28;2083465;28;20037;-80
2023/10/06 01:47:37;;;;;;;4.07;2.22;;;;;;;4.08;100.00;93992.59;2073730;28;20088;-81
2023/10/06 01:48:38;;;;;;;5.55;2.72;;;;;;;4.10;100.00;93993.00;2088966;28;20029;-83
2023/10/06 01:49:39;;;;;;;4.55;2.60;;;;;;;4.09;100.00;93998.66;2092777;28;20031;-81
2023/10/06 01:50:41;;;;;;;5.90;2.80;;;;;;;3.97;100.00;93999.59;2088623;28;20025;-82
2023/10/06 01:51:42;;;;;;;4.93;2.65;;;;;;;3.98;100.00;94001.88;2091674;28;20107;-81
2023/10/06 01:52:43;;;;;;;5.18;2.58;;;;;;;3.95;100.00;94002.59;2105292;28;20035;-83
2023/10/06 01:53:44;;;;;;;4.07;2.25;;;;;;;4.06;100.00;93994.84;2092066;28;20024;-82
2023/10/06 01:54:46;;;;;;;8.18;2.92;;;;;;;4.04;100.00;94005.00;2081684;28;20033;-83
2023/10/06 01:55:56;;;;;;;5.75;2.75;;;;;;;4.09;100.00;93994.13;2089146;28;20028;-81
2023/10/06 01:56:57;;;;;;;4.78;2.35;;;;;;;4.02;100.00;93991.34;2076715;28;20381;-82
2023/10/06 01:57:58;;;;;;;5.28;2.90;;;;;;;3.99;100.00;93998.09;2086117;28;20043;-81
2023/10/06 01:58:59;;;;;;;3.28;2.50;;;;;;;4.04;100.00;93983.84;2090803;28;20017;-83
2023/10/06 02:00:00;;;;;;;6.75;2.70;;;;;;;3.94;100.00;93982.53;2092862;28;20073;-82
2023/10/06 02:01:05;;;;;;;4.72;2.85;;;;;;;3.97;100.00;93981.84;2093782;28;20025;-82
2023/10/06 02:02:12;;;;;;;5.13;2.80;;;;;;;4.03;100.00;93984.94;2093998;28;20016;-81
2023/10/06 02:03:16;;;;;;;4.57;2.30;;;;;;;4.06;100.00;93978.19;2100815;28;20806;-83
2023/10/06 02:04:25;;;;;;;3.40;2.55;;;;;;;4.02;100.00;93972.84;2103266;28;20206;-81
2023/10/06 02:05:27;;;;;;;4.28;2.20;;;;;;;3.92;100.00;93970.78;2095011;28;20111;-81
2023/10/06 02:06:29;;;;;;;5.70;2.40;;;;;;;3.98;100.00;93978.06;2084425;28;20032;-83
2023/10/06 02:07:30;;;;;;;6.18;2.85;;;;;;;4.02;100.00;93976.25;2097584;28;20028;-81
2023/10/06 02:08:31;;;;;;;5.70;2.35;;;;;;;4.02;100.00;93967.56;2094145;28;20103;-82
2023/10/06 02:09:32;;;;;;;7.50;3.05;;;;;;;3.88;100.00;93969.97;2088485;28;20096;-81
2023/10/06 02:10:33;;;;;;;4.97;2.95;;;;;;;3.95;100.00;93972.72;2088327;28;20036;-83
2023/10/06 02:11:34;;;;;;;4.88;3.03;;;;;;;4.04;100.00;93970.63;2094594;28;20051;-80
2023/10/06 02:12:37;;;;;;;4.82;2.90;;;;;;;4.01;100.00;93971.31;2097004;28;20020;-81
2023/10/06 02:13:38;;;;;;;4.03;2.38;;;;;;;3.97;100.00;93970.50;2099546;28;20146;-81
2023/10/06 02:14:40;;;;;;;5.55;2.38;;;;;;;4.08;100.00;93968.78;2080107;28;20026;-80
2023/10/06 02:15:40;;;;;;;4.60;2.35;;;;;;;4.04;100.00;93965.34;2072620;28;20029;-80
2023/10/06 02:16:44;;;;;;;5.15;2.75;;;;;;;4.11;100.00;93973.38;2084001;28;20108;-79
2023/10/06 02:17:45;;;;;;;3.58;2.40;;;;;;;4.04;100.00;93968.75;2094745;28;20036;-81
2023/10/06 02:18:46;;;;;;;3.70;2.25;;;;;;;4.01;100.00;93968.69;2097971;28;20032;-80
2023/10/06 02:19:47;;;;;;;3.42;2.33;;;;;;;4.03;100.00;93975.13;2096913;28;20040;-81
2023/10/06 02:20:48;;;;;;;6.28;2.70;;;;;;;3.93;100.00;93973.06;2097453;28;20059;-81
2023/10/06 02:23:28;;;;;;;3.70;2.20;;;;;;;3.46;100.00;93971.47;2133506;27;20189;-85
2023/10/06 02:24:29;;;;;;;5.88;2.55;;;;;;;3.43;100.00;93966.13;2108180;28;20115;-85
2023/10/06 02:25:31;;;;;;;5.75;2.65;;;;;;;3.53;100.00;93974.25;2089821;28;20469;-85
2023/10/06 02:26:38;;;;;;;4.53;2.67;;;;;;;3.49;100.00;93968.13;2102851;28;20024;-85
2023/10/06 02:27:44;;;;;;;4.32;2.30;;;;;;;3.43;100.00;93964.25;2108454;28;20099;-84
2023/10/06 02:28:49;;;;;;;3.45;2.20;;;;;;;3.39;100.00;93970.59;2110822;28;20110;-85
2023/10/06 02:29:50;;;;;;;5.30;2.72;;;;;;;3.43;100.00;93964.25;2107636;28;20187;-84
2023/10/06 02:30:53;;;;;;;4.15;2.40;;;;;;;3.46;100.00;93965.41;2111758;28;20035;-84
2023/10/06 02:32:00;;;;;;;4.70;2.60;;;;;;;3.42;100.00;93956.66;2100561;28;20555;-85
2023/10/06 02:33:05;;;;;;;5.10;2.20;;;;;;;3.37;100.00;93962.22;2111058;28;20391;-85
2023/10/06 02:34:12;;;;;;;3.80;2.13;;;;;;;3.32;100.00;93955.34;2107612;28;20032;-85
2023/10/06 02:35:13;;;;;;;10.13;2.83;;;;;;;3.26;100.00;93962.78;2108200;28;20110;-85
2023/10/06 02:36:17;;;;;;;3.78;2.50;;;;;;;3.24;100.00;93954.44;2116120;27;20139;-85
2023/10/06 02:37:25;;;;;;;5.75;2.38;;;;;;;3.25;100.00;93957.88;2117481;28;20773;-85
2023/10/06 02:38:38;;;;;;;3.85;2.00;;;;;;;3.32;100.00;93951.94;2106007;28;20019;-85
2023/10/06 02:39:43;;;;;;;4.80;2.40;;;;;;;3.24;100.00;93957.09;2112878;28;20499;-84
2023/10/06 02:40:45;;;;;;;5.43;2.72;;;;;;;3.26;100.00;93957.50;2118270;28;20053;-85
2023/10/06 02:41:46;;;;;;;3.67;2.40;;;;;;;3.02;100.00;93955.13;2098529;28;20473;-84
2023/10/06 02:42:52;;;;;;;3.97;2.53;;;;;;;3.11;100.00;93957.56;2098911;28;20058;-85
2023/10/06 02:43:54;;;;;;;4.38;2.42;;;;;;;3.16;100.00;93959.94;2100015;28;20027;-84
2023/10/06 02:44:57;;;;;;;4.18;2.72;;;;;;;3.16;100.00;93959.94;2103257;28;20023;-84
2023/10/06 02:46:07;;;;;;;5.85;2.30;;;;;;;3.23;100.00;93960.84;2099167;28;20024;-84
2023/10/06 02:47:09;;;;;;;4.35;2.88;;;;;;;3.17;100.00;93958.84;2088729;28;20152;-85
2023/10/06 02:48:17;;;;;;;3.97;2.10;;;;;;;3.19;100.00;93953.97;2094893;28;20457;-83
2023/10/06 02:49:37;;;;;;;3.13;2.05;;;;;;;3.17;100.00;93956.97;2110041;28;20062;-84
2023/10/06 02:50:44;;;;;;;4.30;2.00;;;;;;;3.22;100.00;93958.56;2113448;28;20480;-84
2023/10/06 02:51:47;;;;;;;7.13;2.95;;;;;;;3.25;100.00;93956.00;2106670;28;20032;-84
2023/10/06 02:52:53;;;;;;;5.05;2.75;;;;;;;3.22;100.00;93959.31;2090889;28;20017;-85
2023/10/06 02:54:09;;;;;;;4.88;2.47;;;;;;;3.15;100.00;93953.88;2093488;28;20094;-84
2023/10/06 02:55:11;;;;;;;7.30;2.55;;;;;;;3.13;100.00;93964.03;2106934;28;20111;-86
2023/10/06 02:56:16;;;;;;;4.50;2.20;;;;;;;3.19;100.00;93960.00;2119093;28;20802;-85
2023/10/06 02:57:20;;;;;;;5.95;2.45;;;;;;;3.19;100.00;93954.72;2116080;28;20102;-85
2023/10/06 02:58:27;;;;;;;4.35;2.50;;;;;;;3.19;100.00;93952.09;2106482;28;20133;-85
2023/10/06 02:59:34;;;;;;;6.75;2.90;;;;;;;3.12;100.00;93951.19;2093384;28;20086;-85
2023/10/06 03:00:36;;;;;;;4.07;2.22;;;;;;;3.10;100.00;93959.44;2091205;28;20473;-85
2023/10/06 03:01:38;;;;;;;6.82;2.45;;;;;;;3.11;100.00;93960.22;2107116;27;20441;-82
2023/10/06 03:02:40;;;;;;;4.28;2.58;;;;;;;3.14;100.00;93955.00;2115612;28;20126;-84
2023/10/06 03:03:41;;;;;;;5.00;2.50;;;;;;;3.18;100.00;93960.38;2109914;28;20032;-85
2023/10/06 03:04:49;;;;;;;6.13;2.42;;;;;;;3.10;100.00;93956.81;2106968;28;20015;-82
2023/10/06 03:05:49;;;;;;;6.95;2.70;;;;;;;3.09;100.00;93951.88;2095064;28;20389;-85
2023/10/06 03:06:55;;;;;;;4.05;2.50;;;;;;;3.11;100.00;93954.94;2102838;28;20039;-85
2023/10/06 03:07:58;;;;;;;4.50;2.47;;;;;;;3.12;100.00;93948.56;2108485;28;20066;-84
2023/10/06 03:09:06;;;;;;;4.55;2.50;;;;;;;3.02;100.00;93958.53;2101601;28;20429;-84
2023/10/06 03:10:11;;;;;;;3.95;2.40;;;;;;;3.09;100.00;93951.88;2099730;28;20028;-85
2023/10/06 03:11:22;;;;;;;6.70;2.50;;;;;;;3.04;100.00;93950.28;2091587;28;20024;-85
2023/10/06 03:13:58;;;;;;;4.35;2.38;;;;;;;3.07;100.00;93949.56;2117432;28;20027;-84
2023/10/06 03:14:56;;;;;;;4.65;2.33;;;;;;;3.01;100.00;93946.44;2116093;27;20088;-85
2023/10/06 03:15:59;;;;;;;7.00;2.80;;;;;;;2.94;100.00;93956.88;2114940;28;20487;-84
2023/10/06 03:17:01;;;;;;;4.25;2.35;;;;;;;2.98;100.00;93949.78;2100544;28;20548;-85
2023/10/06 03:18:03;;;;;;;5.43;2.83;;;;;;;2.98;100.00;93946.38;2102706;28;20024;-85
2023/10/06 03:19:05;;;;;;;7.22;2.90;;;;;;;2.98;100.00;93952.41;2089300;28;20025;-84
2023/10/06 03:20:11;;;;;;;5.22;2.50;;;;;;;2.99;100.00;93951.31;2090680;28;20021;-84
2023/10/06 03:22:13;;;;;;;5.63;2.63;;;;;;;3.02;100.00;93960.41;2096903;28;20056;-84
2023/10/06 03:24:58;;;;;;;4.55;2.50;;;;;;;2.94;100.00;93953.44;2110392;28;20054;-84
2023/10/06 03:26:02;;;;;;;3.63;2.17;;;;;;;2.93;100.00;93944.78;2092391;28;20024;-84
2023/10/06 03:27:11;;;;;;;6.30;2.25;;;;;;;2.97;100.00;93947.50;2098804;28;20063;-84
2023/10/06 03:28:13;;;;;;;3.85;2.10;;;;;;;2.90;100.00;93950.75;2114074;28;20098;-83
2023/10/06 03:29:28;;;;;;;5.78;2.45;;;;;;;2.89;100.00;93945.81;2109096;28;20020;-84
2023/10/06 03:30:34;;;;;;;4.13;2.53;;;;;;;2.88;100.00;93949.56;2106397;28;20023;-85
2023/10/06 03:31:44;;;;;;;3.60;1.92;;;;;;;2.87;100.00;93954.09;2099071;28;20516;-85
2023/10/06 03:32:49;;;;;;;5.05;2.70;;;;;;;2.82;100.00;93950.97;2091156;28;20632;-83
2023/10/06 03:33:54;;;;;;;3.22;1.88;;;;;;;2.89;100.00;93949.22;2090323;28;20028;-83
2023/10/06 03:34:58;;;;;;;3.55;2.20;;;;;;;2.87;100.00;93954.09;2094091;28;20062;-84
2023/10/06 03:36:01;;;;;;;2.85;1.92;;;;;;;2.80;100.00;93953.94;2101180;28;20079;-84
2023/10/06 03:37:04;;;;;;;5.78;2.40;;;;;;;2.79;100.00;93955.03;2102441;28;20057;-84
2023/10/06 03:38:13;;;;;;;8.60;2.33;;;;;;;2.79;100.00;93952.41;2113070;28;20545;-84
2023/10/06 03:39:21;;;;;;;3.72;2.05;;;;;;;2.75;100.00;93954.19;2097221;28;20051;-84
2023/10/06 03:40:53;;;;;;;4.07;2.40;;;;;;;2.77;100.00;93957.28;2091428;28;20607;-84
2023/10/06 03:42:00;;;;;;;4.13;1.95;;;;;;;2.78;100.00;93950.88;2097826;28;20100;-84
2023/10/06 03:43:05;;;;;;;3.92;1.95;;;;;;;2.77;100.00;93950.13;2102028;28;20060;-84
2023/10/06 03:44:07;;;;;;;3.60;2.10;;;;;;;2.85;100.00;93951.00;2110661;28;20492;-84
2023/10/06 03:45:18;;;;;;;3.38;2.30;;;;;;;2.81;100.00;93944.91;2092185;28;20020;-84
2023/10/06 03:46:24;;;;;;;4.85;2.15;;;;;;;2.71;100.00;93945.44;2085098;28;20026;-84
2023/10/06 03:47:25;;;;;;;3.35;2.08;;;;;;;2.76;100.00;93948.56;2087918;28;20028;-84
2023/10/06 03:48:29;;;;;;;6.00;2.50;;;;;;;2.74;100.00;93944.75;2092507;28;20024;-84
2023/10/06 03:49:33;;;;;;;7.07;2.53;;;;;;;2.76;100.00;93948.56;2093784;28;20109;-84
2023/10/06 03:50:44;;;;;;;4.85;2.20;;;;;;;2.88;100.00;93944.28;2088819;28;20023;-85
2023/10/06 03:51:45;;;;;;;5.03;2.47;;;;;;;2.87;100.00;93948.81;2097662;28;20112;-85
2023/10/06 03:52:49;;;;;;;4.35;2.63;;;;;;;2.78;100.00;93945.59;2098237;28;20020;-85
2023/10/06 03:53:50;;;;;;;5.55;2.53;;;;;;;2.71;100.00;93945.44;2097742;28;20017;-84
2023/10/06 03:54:52;;;;;;;6.47;2.75;;;;;;;2.80;100.00;93942.59;2088423;28;20062;-84
2023/10/06 03:55:53;;;;;;;4.88;2.70;;;;;;;2.75;100.00;93946.28;2096170;28;20119;-84
2023/10/06 03:56:58;;;;;;;5.80;2.58;;;;;;;2.86;100.00;93947.28;2104671;28;20089;-85
2023/10/06 03:57:59;;;;;;;6.07;2.67;;;;;;;2.81;100.00;93944.91;2096824;28;20521;-84
2023/10/06 03:59:00;;;;;;;6.28;2.65;;;;;;;2.82;100.00;93948.31;2093084;28;20020;-84
2023/10/06 04:00:01;;;;;;;6.15;2.72;;;;;;;2.85;100.00;93953.66;2093416;28;20596;-83
2023/10/06 04:01:07;;;;;;;4.45;2.25;;;;;;;2.86;100.00;93949.94;2086295;28;20048;-83
2023/10/06 04:02:08;;;;;;;6.07;2.55;;;;;;;2.84;100.00;93952.13;2096327;28;20405;-84
2023/10/06 04:03:13;;;;;;;5.07;2.50;;;;;;;2.80;100.00;93956.56;2088463;28;20035;-84
2023/10/06 04:04:15;;;;;;;6.07;2.47;;;;;;;2.75;100.00;93952.31;2081108;28;20117;-85
2023/10/06 04:05:16;;;;;;;5.63;2.72;;;;;;;2.75;100.00;93946.28;2088788;28;20020;-84
2023/10/06 04:06:17;;;;;;;4.32;2.42;;;;;;;2.71;100.00;93950.72;2091847;28;20410;-84
2023/10/06 04:07:23;;;;;;;6.15;2.58;;;;;;;2.78;100.00;93951.63;2091225;28;20118;-85
2023/10/06 04:08:24;;;;;;;3.78;2.63;;;;;;;2.72;100.00;93946.97;2087013;28;20029;-83
2023/10/06 04:09:28;;;;;;;3.78;2.30;;;;;;;2.75;100.00;93947.03;2085917;28;20028;-83
2023/10/06 04:10:29;;;;;;;6.28;2.00;;;;;;;2.73;100.00;93948.50;2088660;28;20017;-84
2023/10/06 04:11:30;;;;;;;5.03;2.60;;;;;;;2.73;100.00;93946.63;2096812;28;20130;-84
2023/10/06 04:12:31;;;;;;;6.63;2.80;;;;;;;2.74;100.00;93950.03;2092955;28;20020;-84
2023/10/06 04:13:32;;;;;;;6.32;2.63;;;;;;;2.61;100.00;93945.97;2104397;28;20020;-84
2023/10/06 04:14:33;;;;;;;4.63;2.40;;;;;;;2.64;100.00;93953.22;2104037;28;20507;-84
2023/10/06 04:15:38;;;;;;;7.28;3.05;;;;;;;2.66;100.00;93943.84;2091797;28;20444;-84
2023/10/06 04:16:45;;;;;;;6.22;2.30;;;;;;;2.64;100.00;93950.59;2093168;28;20021;-84
2023/10/06 04:17:46;;;;;;;4.82;2.40;;;;;;;2.61;100.00;93951.25;2096253;28;20111;-84
2023/10/06 04:18:47;;;;;;;7.43;2.47;;;;;;;2.58;100.00;93957.22;2088070;28;20025;-84
2023/10/06 04:19:48;;;;;;;4.60;2.70;;;;;;;2.39;100.00;93956.06;2104923;28;20035;-84
2023/10/06 04:20:51;;;;;;;7.82;2.90;;;;;;;2.45;100.00;93959.19;2102478;28;20036;-84
2023/10/06 04:21:52;;;;;;;5.70;2.60;;;;;;;2.34;100.00;93951.06;2098889;28;20032;-84
2023/10/06 04:22:53;;;;;;;4.78;2.35;;;;;;;2.40;100.00;93954.19;2091822;28;20052;-85
2023/10/06 04:23:54;;;;;;;5.97;2.80;;;;;;;2.45;100.00;93949.41;2089847;28;20029;-84
2023/10/06 04:24:55;;;;;;;4.10;2.50;;;;;;;2.49;100.00;93952.13;2095095;28;20064;-84
2023/10/06 04:25:57;;;;;;;5.00;2.55;;;;;;;2.57;100.00;93945.91;2086239;28;20083;-84
2023/10/06 04:26:59;;;;;;;4.95;3.35;;;;;;;2.51;100.00;93950.69;2091687;28;20063;-84
2023/10/06 04:28:00;;;;;;;5.93;2.78;;;;;;;2.49;100.00;93952.13;2100560;28;20477;-84
2023/10/06 04:29:04;;;;;;;5.32;2.50;;;;;;;2.52;100.00;93952.22;2111858;28;20024;-84
2023/10/06 04:30:11;;;;;;;4.78;2.20;;;;;;;2.46;100.00;93953.59;2089003;28;20033;-84
2023/10/06 04:31:15;;;;;;;4.63;2.40;;;;;;;2.42;100.00;93949.34;2084125;28;20033;-84
2023/10/06 04:32:16;;;;;;;6.85;2.63;;;;;;;2.42;100.00;93944.06;2093562;28;20115;-84
2023/10/06 04:33:21;;;;;;;8.50;2.42;;;;;;;2.42;100.00;93955.38;2092204;28;20466;-84
2023/10/06 04:34:22;;;;;;;4.85;2.60;;;;;;;2.40;100.00;93948.91;2096030;28;20046;-84
2023/10/06 04:35:24;;;;;;;7.15;2.63;;;;;;;2.45;100.00;93949.41;2085604;28;20036;-84
2023/10/06 04:36:25;;;;;;;4.25;2.58;;;;;;;2.48;100.00;93946.09;2084223;28;20092;-84
2023/10/06 04:37:26;;;;;;;6.40;2.80;;;;;;;2.61;100.00;93952.03;2086300;28;20032;-84
2023/10/06 04:38:29;;;;;;;4.45;2.58;;;;;;;2.64;100.00;93942.66;2084288;28;20336;-84
2023/10/06 04:39:30;;;;;;;5.28;2.42;;;;;;;2.68;100.00;93935.59;2084106;28;20021;-83
2023/10/06 04:40:32;;;;;;;5.40;2.70;;;;;;;2.68;100.00;93940.88;2092707;28;20130;-85
2023/10/06 04:41:33;;;;;;;6.25;2.90;;;;;;;2.59;100.00;93942.91;2092808;28;20017;-83
2023/10/06 04:42:38;;;;;;;11.07;2.50;;;;;;;2.57;100.00;93938.00;2095668;28;20062;-85
2023/10/06 04:43:44;;;;;;;9.70;2.85;;;;;;;2.61;100.00;93940.72;2092733;28;20052;-84
2023/10/06 04:44:48;;;;;;;5.18;2.83;;;;;;;2.64;100.00;93934.75;2085256;28;20025;-85
2023/10/06 04:45:50;;;;;;;5.22;2.33;;;;;;;2.74;100.00;93939.47;2094615;28;20025;-84
2023/10/06 04:46:52;;;;;;;6.07;2.97;;;;;;;2.78;100.00;93927.88;2083418;28;20035;-84
2023/10/06 04:47:55;;;;;;;5.90;2.50;;;;;;;2.76;100.00;93931.97;2083501;28;20528;-84
2023/10/06 04:48:56;;;;;;;5.47;2.40;;;;;;;2.76;100.00;93934.59;2094854;28;20230;-83
2023/10/06 04:49:57;;;;;;;5.82;2.90;;;;;;;2.70;100.00;93931.47;2093554;28;20047;-84
2023/10/06 04:50:58;;;;;;;5.07;2.35;;;;;;;2.64;100.00;93932.88;2090684;28;20062;-84
2023/10/06 04:52:00;;;;;;;4.43;2.42;;;;;;;2.71;100.00;93937.53;2092448;28;20024;-84
2023/10/06 04:53:01;;;;;;;4.90;2.47;;;;;;;2.78;100.00;93932.41;2087266;28;20057;-85
2023/10/06 04:54:07;;;;;;;4.55;2.40;;;;;;;2.74;100.00;93931.56;2096049;28;20115;-84
2023/10/06 04:55:13;;;;;;;5.35;2.67;;;;;;;2.72;100.00;93931.91;2096466;28;20031;-84
2023/10/06 04:56:14;;;;;;;4.05;2.30;;;;;;;2.74;100.00;93936.84;2099631;28;20512;-84
2023/10/06 04:57:15;;;;;;;3.35;2.10;;;;;;;2.78;100.00;93937.69;2092093;28;20025;-84
2023/10/06 04:58:17;;;;;;;4.13;2.15;;;;;;;2.70;100.00;93933.34;2091544;28;20025;-84
2023/10/06 04:59:19;;;;;;;4.32;2.47;;;;;;;2.73;100.00;93933.44;2092172;28;20024;-84
2023/10/06 05:00:22;;;;;;;4.93;2.33;;;;;;;2.69;100.00;93926.56;2092404;28;20029;-84
2023/10/06 05:01:23;;;;;;;2.92;1.83;;;;;;;2.72;100.00;93931.91;2111068;28;20024;-85
2023/10/06 05:02:24;;;;;;;3.70;2.30;;;;;;;2.67;100.00;93928.75;2104504;28;20019;-84
2023/10/06 05:03:40;;;;;;;4.25;2.03;;;;;;;2.70;100.00;93930.72;2096188;28;20272;-84
2023/10/06 05:04:42;;;;;;;4.07;2.13;;;;;;;2.71;100.00;93927.72;2103740;28;20338;-85
2023/10/06 05:05:43;;;;;;;3.75;2.10;;;;;;;2.72;100.00;93936.41;2101491;28;20481;-85
2023/10/06 05:06:45;;;;;;;4.05;2.08;;;;;;;2.65;100.00;93931.00;2084839;28;20539;-85
2023/10/06 05:07:50;;;;;;;4.03;2.08;;;;;;;2.71;100.00;93929.59;2086324;28;20068;-85
2023/10/06 05:08:51;;;;;;;3.15;2.00;;;;;;;2.64;100.00;93932.88;2099495;28;20032;-85